createdAt,value
2019-01-24T00:00:19.332Z,80.56
2019-01-24T00:02:46.084Z,79.58
2019-01-24T00:05:12.828Z,79.64
2019-01-24T00:07:39.577Z,80.29
2019-01-24T00:10:07.568Z,79.51
2019-01-24T00:12:34.369Z,79.88
2019-01-24T00:15:01.097Z,78.93
2019-01-24T00:17:27.836Z,78.73
2019-01-24T00:19:54.586Z,78.43
2019-01-24T00:22:21.324Z,79.67
2019-01-24T00:24:48.081Z,79.79
2019-01-24T00:27:14.817Z,80.36
2019-01-24T00:29:41.569Z,81.05
2019-01-24T00:32:08.322Z,79.50
2019-01-24T00:34:35.080Z,80.11
2019-01-24T00:37:01.835Z,80.21
2019-01-24T00:39:28.592Z,80.04
2019-01-24T00:41:55.337Z,79.48
2019-01-24T00:44:22.101Z,80.38
2019-01-24T00:46:48.845Z,79.79
2019-01-24T00:49:15.587Z,80.31
2019-01-24T00:51:42.316Z,79.05
2019-01-24T00:54:09.088Z,80.03
2019-01-24T00:56:35.819Z,79.20
2019-01-24T00:59:02.583Z,78.91
2019-01-24T01:01:29.336Z,79.13
2019-01-24T01:03:56.116Z,79.20
2019-01-24T01:06:22.844Z,78.71
2019-01-24T01:08:49.712Z,78.63
2019-01-24T01:11:16.436Z,78.50
2019-01-24T01:13:43.248Z,78.54
2019-01-24T01:16:09.945Z,79.11
2019-01-24T01:18:36.716Z,79.56
2019-01-24T01:21:03.457Z,79.17
2019-01-24T01:23:30.217Z,78.98
2019-01-24T01:25:56.994Z,79.13
2019-01-24T01:28:23.805Z,78.63
2019-01-24T01:30:50.552Z,78.41
2019-01-24T01:33:17.304Z,78.77
2019-01-24T01:35:44.076Z,78.69
2019-01-24T01:38:10.810Z,78.32
2019-01-24T01:40:37.575Z,79.15
2019-01-24T01:43:04.347Z,78.16
2019-01-24T01:45:31.101Z,77.69
2019-01-24T01:47:57.850Z,78.58
2019-01-24T01:50:24.635Z,78.25
2019-01-24T01:52:51.407Z,77.78
2019-01-24T01:55:18.161Z,78.65
2019-01-24T01:57:44.892Z,77.57
2019-01-24T02:00:17.024Z,78.13
2019-01-24T02:02:43.776Z,78.10
2019-01-24T02:05:10.608Z,77.37
2019-01-24T02:07:37.348Z,77.52
2019-01-24T02:10:05.697Z,77.33
2019-01-24T02:12:32.452Z,77.79
2019-01-24T02:14:59.200Z,77.25
2019-01-24T02:17:25.951Z,77.97
2019-01-24T02:19:52.697Z,77.50
2019-01-24T02:22:19.436Z,77.56
2019-01-24T02:24:46.209Z,78.11
2019-01-24T02:27:12.944Z,77.56
2019-01-24T02:29:39.733Z,77.89
2019-01-24T02:32:06.465Z,78.14
2019-01-24T02:34:33.216Z,78.82
2019-01-24T02:36:59.968Z,78.78
2019-01-24T02:39:26.736Z,79.43
2019-01-24T02:41:53.476Z,79.09
2019-01-24T02:44:20.298Z,79.18
2019-01-24T02:46:47.056Z,80.48
2019-01-24T02:49:13.831Z,79.81
2019-01-24T02:51:40.588Z,79.27
2019-01-24T02:54:07.363Z,79.50
2019-01-24T02:56:34.096Z,79.74
2019-01-24T02:59:00.829Z,79.49
2019-01-24T03:01:27.596Z,79.24
2019-01-24T03:03:54.338Z,79.80
2019-01-24T03:06:21.088Z,78.83
2019-01-24T03:08:47.834Z,78.70
2019-01-24T03:11:14.579Z,79.51
2019-01-24T03:13:41.308Z,78.98
2019-01-24T03:16:08.073Z,78.20
2019-01-24T03:18:34.813Z,77.60
2019-01-24T03:21:01.569Z,77.86
2019-01-24T03:23:28.305Z,78.11
2019-01-24T03:25:55.068Z,78.35
2019-01-24T03:28:21.844Z,78.33
2019-01-24T03:30:48.606Z,77.64
2019-01-24T03:33:15.345Z,76.75
2019-01-24T03:35:42.109Z,76.69
2019-01-24T03:38:08.844Z,76.99
2019-01-24T03:40:35.592Z,76.48
2019-01-24T03:43:02.350Z,76.87
2019-01-24T03:45:29.113Z,77.57
2019-01-24T03:47:55.863Z,77.26
2019-01-24T03:50:22.619Z,77.50
2019-01-24T03:52:49.480Z,78.54
2019-01-24T03:55:17.493Z,78.15
2019-01-24T03:57:44.241Z,77.13
2019-01-24T04:00:13.540Z,77.39
2019-01-24T04:02:40.284Z,77.83
2019-01-24T04:05:11.761Z,78.30
2019-01-24T04:07:33.809Z,77.83
2019-01-24T04:10:00.572Z,77.44
2019-01-24T04:12:27.305Z,78.69
2019-01-24T04:14:54.072Z,79.60
2019-01-24T04:17:20.805Z,79.20
2019-01-24T04:19:47.540Z,78.74
2019-01-24T04:22:14.299Z,78.32
2019-01-24T04:24:41.049Z,78.31
2019-01-24T04:27:07.819Z,77.52
2019-01-24T04:29:34.565Z,78.57
2019-01-24T04:32:01.312Z,77.45
2019-01-24T04:34:28.107Z,76.75
2019-01-24T04:36:54.869Z,76.51
2019-01-24T04:39:21.610Z,77.31
2019-01-24T04:41:48.352Z,77.32
2019-01-24T04:44:15.084Z,77.74
2019-01-24T04:46:41.841Z,79.05
2019-01-24T04:49:08.760Z,79.35
2019-01-24T04:51:35.316Z,78.66
2019-01-24T04:54:02.061Z,78.84
2019-01-24T04:56:28.837Z,79.00
2019-01-24T04:58:55.560Z,77.98
2019-01-24T05:01:22.358Z,77.71
2019-01-24T05:03:49.093Z,78.86
2019-01-24T05:06:15.943Z,77.28
2019-01-24T05:08:42.687Z,77.94
2019-01-24T05:11:09.480Z,77.86
2019-01-24T05:13:36.231Z,77.73
2019-01-24T05:16:03.055Z,76.93
2019-01-24T05:18:29.785Z,77.36
2019-01-24T05:20:56.537Z,76.71
2019-01-24T05:23:23.308Z,77.83
2019-01-24T05:25:50.077Z,77.50
2019-01-24T05:28:16.806Z,78.33
2019-01-24T05:30:43.654Z,77.07
2019-01-24T05:33:10.396Z,77.06
2019-01-24T05:35:37.169Z,77.53
2019-01-24T05:38:03.884Z,76.06
2019-01-24T05:40:30.661Z,76.47
2019-01-24T05:42:57.396Z,76.80
2019-01-24T05:45:24.140Z,76.51
2019-01-24T05:47:50.904Z,77.03
2019-01-24T05:50:17.651Z,75.59
2019-01-24T05:52:44.420Z,75.69
2019-01-24T05:55:11.170Z,76.28
2019-01-24T05:57:37.936Z,76.05
2019-01-24T06:00:06.234Z,77.25
2019-01-24T06:02:33.003Z,77.10
2019-01-24T06:04:59.740Z,76.95
2019-01-24T06:07:26.613Z,78.79
2019-01-24T06:09:53.379Z,78.16
2019-01-24T06:12:20.140Z,77.54
2019-01-24T06:14:46.885Z,78.60
2019-01-24T06:17:13.640Z,78.18
2019-01-24T06:19:40.383Z,77.97
2019-01-24T06:22:07.185Z,78.52
2019-01-24T06:24:33.933Z,77.30
2019-01-24T06:27:00.697Z,77.32
2019-01-24T06:29:27.444Z,78.40
2019-01-24T06:31:54.416Z,77.50
2019-01-24T06:34:21.183Z,76.83
2019-01-24T06:36:47.956Z,77.49
2019-01-24T06:39:14.699Z,78.58
2019-01-24T06:41:41.478Z,77.30
2019-01-24T06:44:08.220Z,77.13
2019-01-24T06:46:35.045Z,77.25
2019-01-24T06:49:01.777Z,76.84
2019-01-24T06:51:28.536Z,78.75
2019-01-24T06:53:55.299Z,78.67
2019-01-24T06:56:22.153Z,77.85
2019-01-24T06:58:48.888Z,78.54
2019-01-24T07:01:15.632Z,78.43
2019-01-24T07:03:42.425Z,78.32
2019-01-24T07:06:09.213Z,78.35
2019-01-24T07:08:35.972Z,77.59
2019-01-24T07:11:02.732Z,78.04
2019-01-24T07:13:29.490Z,78.74
2019-01-24T07:15:56.232Z,77.98
2019-01-24T07:18:23.038Z,77.36
2019-01-24T07:20:50.213Z,79.09
2019-01-24T07:23:17.077Z,80.19
2019-01-24T07:25:43.832Z,79.12
2019-01-24T07:28:10.596Z,79.49
2019-01-24T07:30:37.351Z,78.98
2019-01-24T07:33:04.110Z,79.81
2019-01-24T07:35:30.860Z,80.43
2019-01-24T07:37:57.626Z,78.25
2019-01-24T07:40:24.361Z,78.38
2019-01-24T07:42:51.132Z,76.76
2019-01-24T07:45:23.667Z,77.67
2019-01-24T07:47:50.598Z,77.13
2019-01-24T07:50:17.354Z,76.99
2019-01-24T07:52:44.107Z,76.47
2019-01-24T07:55:10.911Z,76.61
2019-01-24T07:57:37.738Z,76.92
2019-01-24T08:00:07.555Z,76.89
2019-01-24T08:02:34.315Z,77.16
2019-01-24T08:05:01.059Z,77.75
2019-01-24T08:07:27.809Z,76.81
2019-01-24T08:09:54.544Z,76.51
2019-01-24T08:12:21.304Z,76.91
2019-01-24T08:14:48.044Z,76.30
2019-01-24T08:17:14.801Z,76.24
2019-01-24T08:19:41.553Z,76.80
2019-01-24T08:22:08.281Z,76.69
2019-01-24T08:24:35.024Z,76.57
2019-01-24T08:27:01.796Z,76.27
2019-01-24T08:29:28.569Z,75.77
2019-01-24T08:31:55.300Z,75.66
2019-01-24T08:34:22.064Z,75.72
2019-01-24T08:36:48.820Z,76.31
2019-01-24T08:39:15.583Z,76.12
2019-01-24T08:41:42.327Z,75.50
2019-01-24T08:44:09.118Z,74.42
2019-01-24T08:46:35.847Z,74.95
2019-01-24T08:49:02.619Z,75.04
2019-01-24T08:51:29.352Z,75.22
2019-01-24T08:53:56.121Z,75.29
2019-01-24T08:56:22.857Z,76.62
2019-01-24T08:58:49.619Z,74.67
2019-01-24T09:01:16.356Z,74.44
2019-01-24T09:03:43.142Z,75.07
2019-01-24T09:06:09.852Z,75.17
2019-01-24T09:08:36.612Z,74.87
2019-01-24T09:11:03.361Z,75.94
2019-01-24T09:13:30.111Z,75.19
2019-01-24T09:15:56.845Z,75.04
2019-01-24T09:18:23.612Z,75.41
2019-01-24T09:20:50.344Z,75.32
2019-01-24T09:23:17.197Z,74.67
2019-01-24T09:25:43.978Z,75.39
2019-01-24T09:28:14.747Z,75.51
2019-01-24T09:30:37.512Z,75.94
2019-01-24T09:33:04.428Z,74.50
2019-01-24T09:35:31.155Z,75.82
2019-01-24T09:37:57.920Z,75.86
2019-01-24T09:40:24.936Z,77.46
2019-01-24T09:42:51.706Z,78.06
2019-01-24T09:45:22.172Z,78.02
2019-01-24T09:47:48.930Z,77.79
2019-01-24T09:50:17.833Z,77.25
2019-01-24T09:52:44.600Z,77.86
2019-01-24T09:55:11.380Z,77.94
2019-01-24T09:57:38.112Z,76.93
2019-01-24T10:00:08.687Z,76.95
2019-01-24T10:02:35.425Z,77.37
2019-01-24T10:05:02.199Z,76.93
2019-01-24T10:07:28.933Z,76.87
2019-01-24T10:09:55.693Z,76.65
2019-01-24T10:12:22.445Z,76.96
2019-01-24T10:14:49.193Z,77.29
2019-01-24T10:17:15.928Z,75.73
2019-01-24T10:19:42.692Z,76.18
2019-01-24T10:22:09.416Z,75.62
2019-01-24T10:24:36.176Z,75.80
2019-01-24T10:27:02.993Z,75.11
2019-01-24T10:29:29.766Z,75.36
2019-01-24T10:31:56.508Z,75.81
2019-01-24T10:34:23.276Z,74.58
2019-01-24T10:36:50.012Z,75.11
2019-01-24T10:39:16.772Z,74.44
2019-01-24T10:41:43.517Z,74.88
2019-01-24T10:44:10.310Z,72.98
2019-01-24T10:46:37.066Z,74.34
2019-01-24T10:49:03.850Z,74.07
2019-01-24T10:51:30.596Z,73.06
2019-01-24T10:53:57.367Z,73.36
2019-01-24T10:56:24.117Z,73.47
2019-01-24T10:58:50.873Z,73.99
2019-01-24T11:01:17.632Z,74.85
2019-01-24T11:03:44.376Z,73.04
2019-01-24T11:06:11.128Z,73.05
2019-01-24T11:08:37.877Z,72.57
2019-01-24T11:11:04.641Z,72.15
2019-01-24T11:13:31.372Z,71.10
2019-01-24T11:15:58.140Z,71.64
2019-01-24T11:18:24.889Z,71.40
2019-01-24T11:20:51.741Z,70.72
2019-01-24T11:23:18.496Z,71.73
2019-01-24T11:25:45.280Z,71.58
2019-01-24T11:28:12.062Z,71.58
2019-01-24T11:30:38.908Z,71.40
2019-01-24T11:33:05.949Z,70.86
2019-01-24T11:35:33.390Z,71.79
2019-01-24T11:38:00.158Z,71.94
2019-01-24T11:40:26.932Z,72.27
2019-01-24T11:42:53.697Z,71.38
2019-01-24T11:45:22.448Z,72.20
2019-01-24T11:47:49.192Z,72.37
2019-01-24T11:50:16.984Z,70.26
2019-01-24T11:52:43.765Z,70.29
2019-01-24T11:55:11.399Z,69.67
2019-01-24T11:57:38.176Z,67.88
2019-01-24T12:00:12.664Z,68.10
2019-01-24T12:02:39.844Z,67.50
2019-01-24T12:05:07.668Z,67.39
2019-01-24T12:07:34.418Z,69.56
2019-01-24T12:10:01.188Z,69.00
2019-01-24T12:12:27.930Z,68.44
2019-01-24T12:14:54.692Z,68.93
2019-01-24T12:17:21.508Z,68.24
2019-01-24T12:19:48.272Z,69.72
2019-01-24T12:22:15.061Z,69.90
2019-01-24T12:24:41.825Z,68.53
2019-01-24T12:27:08.577Z,70.59
2019-01-24T12:29:35.333Z,68.86
2019-01-24T12:32:02.104Z,70.25
2019-01-24T12:34:28.836Z,69.14
2019-01-24T12:36:55.630Z,70.56
2019-01-24T12:39:22.381Z,69.19
2019-01-24T12:41:49.156Z,69.92
2019-01-24T12:44:15.921Z,68.86
2019-01-24T12:46:42.672Z,67.95
2019-01-24T12:49:09.457Z,70.06
2019-01-24T12:51:36.204Z,68.93
2019-01-24T12:54:03.012Z,69.73
2019-01-24T12:56:29.734Z,68.85
2019-01-24T12:58:56.500Z,68.14
2019-01-24T13:01:23.268Z,70.31
2019-01-24T13:03:50.028Z,69.93
2019-01-24T13:06:16.792Z,70.88
2019-01-24T13:08:43.556Z,70.29
2019-01-24T13:11:10.922Z,71.31
2019-01-24T13:13:37.720Z,71.46
2019-01-24T13:16:04.487Z,73.31
2019-01-24T13:18:31.244Z,71.68
2019-01-24T13:20:58.027Z,70.59
2019-01-24T13:23:25.757Z,71.23
2019-01-24T13:25:52.445Z,70.62
2019-01-24T13:28:19.196Z,70.71
2019-01-24T13:30:45.959Z,70.53
2019-01-24T13:33:12.698Z,70.06
2019-01-24T13:35:39.492Z,71.26
2019-01-24T13:38:06.308Z,69.98
2019-01-24T13:40:33.084Z,72.04
2019-01-24T13:43:00.765Z,71.76
2019-01-24T13:45:30.667Z,72.09
2019-01-24T13:47:57.441Z,73.02
2019-01-24T13:50:24.200Z,73.26
2019-01-24T13:52:51.023Z,74.66
2019-01-24T13:55:17.792Z,73.53
2019-01-24T13:57:44.539Z,72.65
2019-01-24T14:00:17.164Z,74.22
2019-01-24T14:02:44.277Z,74.38
2019-01-24T14:05:12.376Z,75.13
2019-01-24T14:07:39.127Z,74.92
2019-01-24T14:10:06.564Z,75.17
2019-01-24T14:12:33.311Z,74.24
2019-01-24T14:15:00.093Z,73.89
2019-01-24T14:17:26.844Z,75.37
2019-01-24T14:19:53.600Z,73.72
2019-01-24T14:22:20.348Z,74.90
2019-01-24T14:24:47.113Z,74.70
2019-01-24T14:27:15.308Z,74.89
2019-01-24T14:29:40.626Z,74.40
2019-01-24T14:32:07.372Z,74.50
2019-01-24T14:34:34.140Z,74.95
2019-01-24T14:37:00.916Z,75.74
2019-01-24T14:39:27.681Z,75.82
2019-01-24T14:41:54.416Z,75.18
2019-01-24T14:44:21.208Z,74.38
2019-01-24T14:46:47.960Z,75.78
2019-01-24T14:49:14.700Z,74.47
2019-01-24T14:51:41.453Z,74.70
2019-01-24T14:54:08.209Z,74.32
2019-01-24T14:56:34.965Z,73.31
2019-01-24T14:59:01.724Z,74.96
2019-01-24T15:01:28.485Z,74.37
2019-01-24T15:03:55.228Z,74.67
2019-01-24T15:06:22.004Z,75.61
2019-01-24T15:08:48.753Z,75.24
2019-01-24T15:11:15.544Z,75.58
2019-01-24T15:13:42.276Z,74.39
2019-01-24T15:16:09.033Z,74.58
2019-01-24T15:18:35.793Z,75.33
2019-01-24T15:21:02.706Z,75.08
2019-01-24T15:23:29.477Z,74.99
2019-01-24T15:25:56.232Z,74.90
2019-01-24T15:28:22.969Z,74.64
2019-01-24T15:30:49.737Z,76.62
2019-01-24T15:33:16.489Z,75.35
2019-01-24T15:35:43.296Z,75.99
2019-01-24T15:38:10.048Z,75.75
2019-01-24T15:40:36.852Z,76.57
2019-01-24T15:43:03.934Z,75.24
2019-01-24T15:45:30.716Z,75.61
2019-01-24T15:47:57.514Z,75.28
2019-01-24T15:50:24.267Z,76.86
2019-01-24T15:52:51.118Z,76.80
2019-01-24T15:55:17.876Z,76.75
2019-01-24T15:57:44.748Z,76.01
2019-01-24T16:00:16.459Z,76.61
2019-01-24T16:02:43.218Z,75.44
2019-01-24T16:05:09.967Z,75.08
2019-01-24T16:07:36.744Z,75.17
2019-01-24T16:10:04.790Z,74.98
2019-01-24T16:12:31.756Z,76.29
2019-01-24T16:14:58.512Z,75.83
2019-01-24T16:17:25.281Z,75.79
2019-01-24T16:19:52.024Z,77.21
2019-01-24T16:22:18.784Z,75.96
2019-01-24T16:24:45.524Z,77.03
2019-01-24T16:27:12.323Z,78.31
2019-01-24T16:29:39.049Z,77.59
2019-01-24T16:32:05.822Z,78.71
2019-01-24T16:34:32.576Z,78.06
2019-01-24T16:36:59.364Z,78.13
2019-01-24T16:39:26.128Z,77.91
2019-01-24T16:41:52.981Z,77.29
2019-01-24T16:44:19.888Z,76.82
2019-01-24T16:46:46.653Z,78.12
2019-01-24T16:49:13.410Z,78.06
2019-01-24T16:51:40.169Z,77.62
2019-01-24T16:54:06.916Z,79.00
2019-01-24T16:56:33.660Z,78.02
2019-01-24T16:59:00.416Z,78.86
2019-01-24T17:01:27.176Z,80.67
2019-01-24T17:03:53.916Z,79.84
2019-01-24T17:06:20.681Z,79.99
2019-01-24T17:08:48.184Z,80.96
2019-01-24T17:11:14.960Z,79.12
2019-01-24T17:13:41.713Z,79.06
2019-01-24T17:16:08.573Z,79.14
2019-01-24T17:18:35.328Z,80.76
2019-01-24T17:21:02.064Z,80.23
2019-01-24T17:23:28.825Z,79.71
2019-01-24T17:25:55.687Z,80.84
2019-01-24T17:28:22.444Z,79.84
2019-01-24T17:30:49.188Z,79.46
2019-01-24T17:33:15.968Z,81.25
2019-01-24T17:35:42.732Z,80.47
2019-01-24T17:38:09.485Z,82.37
2019-01-24T17:40:36.265Z,81.31
2019-01-24T17:43:03.047Z,79.95
2019-01-24T17:45:29.836Z,81.88
2019-01-24T17:47:56.624Z,80.63
2019-01-24T17:50:23.386Z,79.76
2019-01-24T17:52:50.253Z,82.01
2019-01-24T17:55:19.868Z,80.19
2019-01-24T17:57:46.608Z,79.36
2019-01-24T18:00:16.001Z,81.55
2019-01-24T18:02:42.784Z,80.67
2019-01-24T18:05:09.589Z,79.88
2019-01-24T18:07:36.300Z,79.07
2019-01-24T18:10:04.960Z,80.59
2019-01-24T18:12:31.708Z,79.18
2019-01-24T18:14:58.460Z,79.19
2019-01-24T18:17:25.212Z,80.92
2019-01-24T18:19:51.976Z,79.71
2019-01-24T18:22:18.720Z,80.18
2019-01-24T18:24:45.485Z,82.17
2019-01-24T18:27:12.216Z,80.97
2019-01-24T18:29:38.948Z,80.11
2019-01-24T18:32:06.184Z,82.10
2019-01-24T18:34:32.970Z,81.42
2019-01-24T18:36:59.706Z,80.73
2019-01-24T18:39:26.448Z,83.12
2019-01-24T18:41:53.200Z,81.17
2019-01-24T18:44:20.088Z,82.21
2019-01-24T18:46:46.849Z,81.26
2019-01-24T18:49:13.584Z,80.54
2019-01-24T18:51:40.385Z,82.49
2019-01-24T18:54:07.136Z,81.14
2019-01-24T18:56:33.909Z,82.73
2019-01-24T18:59:00.657Z,82.44
2019-01-24T19:01:27.429Z,83.76
2019-01-24T19:03:54.168Z,81.83
2019-01-24T19:06:20.948Z,83.02
2019-01-24T19:08:47.793Z,81.05
2019-01-24T19:11:14.556Z,81.84
2019-01-24T19:13:41.327Z,80.36
2019-01-24T19:16:08.164Z,79.44
2019-01-24T19:18:35.987Z,81.78
2019-01-24T19:21:01.692Z,80.25
2019-01-24T19:23:28.437Z,81.78
2019-01-24T19:25:55.188Z,80.30
2019-01-24T19:28:21.936Z,81.26
2019-01-24T19:30:48.712Z,80.70
2019-01-24T19:33:15.456Z,79.68
2019-01-24T19:35:42.236Z,81.93
2019-01-24T19:38:09.010Z,81.33
2019-01-24T19:40:35.760Z,81.78
2019-01-24T19:43:02.511Z,82.65
2019-01-24T19:45:29.276Z,81.79
2019-01-24T19:47:56.014Z,82.09
2019-01-24T19:50:24.341Z,82.88
2019-01-24T19:52:51.146Z,83.18
2019-01-24T19:55:17.864Z,81.21
2019-01-24T19:57:44.620Z,80.47
2019-01-24T20:00:14.013Z,79.33
2019-01-24T20:02:40.773Z,77.66
2019-01-24T20:05:08.953Z,78.24
2019-01-24T20:07:35.731Z,77.35
2019-01-24T20:10:02.538Z,77.13
2019-01-24T20:12:29.300Z,76.85
2019-01-24T20:14:56.120Z,75.79
2019-01-24T20:17:23.205Z,76.23
2019-01-24T20:19:49.961Z,73.53
2019-01-24T20:22:16.732Z,74.43
2019-01-24T20:24:43.472Z,73.88
2019-01-24T20:27:10.284Z,73.88
2019-01-24T20:29:37.059Z,74.76
2019-01-24T20:32:03.816Z,74.46
2019-01-24T20:34:30.565Z,73.86
2019-01-24T20:36:57.483Z,73.89
2019-01-24T20:39:24.231Z,73.98
2019-01-24T20:41:51.096Z,74.14
2019-01-24T20:44:17.841Z,73.99
2019-01-24T20:46:44.700Z,73.39
2019-01-24T20:49:11.425Z,73.74
2019-01-24T20:51:38.192Z,74.12
2019-01-24T20:54:04.935Z,75.20
2019-01-24T20:56:31.712Z,75.25
2019-01-24T20:58:58.448Z,76.54
2019-01-24T21:01:25.228Z,76.93
2019-01-24T21:03:55.523Z,76.28
2019-01-24T21:06:18.723Z,77.22
2019-01-24T21:08:45.533Z,77.24
2019-01-24T21:11:12.272Z,77.84
2019-01-24T21:13:39.032Z,78.42
2019-01-24T21:16:05.780Z,77.92
2019-01-24T21:18:32.553Z,77.58
2019-01-24T21:20:59.328Z,78.15
2019-01-24T21:23:26.101Z,77.60
2019-01-24T21:25:52.836Z,77.79
2019-01-24T21:28:19.600Z,77.78
2019-01-24T21:30:46.340Z,77.66
2019-01-24T21:33:13.101Z,78.23
2019-01-24T21:35:39.844Z,77.64
2019-01-24T21:38:07.268Z,76.67
2019-01-24T21:40:34.021Z,77.89
2019-01-24T21:43:00.797Z,77.06
2019-01-24T21:45:29.662Z,78.03
2019-01-24T21:47:56.433Z,77.68
2019-01-24T21:50:24.184Z,76.51
2019-01-24T21:52:50.941Z,76.44
2019-01-24T21:55:18.296Z,77.41
2019-01-24T21:57:45.084Z,77.69
2019-01-24T22:00:13.788Z,77.20
2019-01-24T22:02:40.557Z,76.29
2019-01-24T22:05:07.660Z,76.47
2019-01-24T22:07:34.407Z,75.72
2019-01-24T22:10:01.156Z,75.36
2019-01-24T22:12:27.924Z,74.49
2019-01-24T22:14:54.680Z,75.31
2019-01-24T22:17:21.420Z,75.38
2019-01-24T22:19:48.176Z,76.16
2019-01-24T22:22:14.920Z,74.97
2019-01-24T22:24:41.672Z,75.56
2019-01-24T22:27:08.416Z,75.01
2019-01-24T22:29:35.163Z,74.22
2019-01-24T22:32:01.900Z,75.20
2019-01-24T22:34:28.657Z,74.13
2019-01-24T22:36:55.388Z,72.53
2019-01-24T22:39:22.141Z,74.46
2019-01-24T22:41:48.908Z,72.80
2019-01-24T22:44:15.656Z,72.91
2019-01-24T22:46:42.416Z,72.91
2019-01-24T22:49:10.241Z,72.88
2019-01-24T22:51:35.923Z,71.85
2019-01-24T22:54:02.686Z,70.97
2019-01-24T22:56:35.378Z,71.86
2019-01-24T22:58:56.175Z,71.36
2019-01-24T23:01:41.960Z,71.80
2019-01-24T23:04:11.277Z,73.20
2019-01-24T23:06:38.015Z,73.73
2019-01-24T23:09:07.632Z,74.79
2019-01-24T23:11:34.366Z,74.81
2019-01-24T23:14:01.200Z,74.72
2019-01-24T23:16:27.960Z,74.82
2019-01-24T23:18:54.717Z,74.85
2019-01-24T23:21:21.461Z,75.05
2019-01-24T23:23:48.215Z,74.63
2019-01-24T23:26:14.952Z,74.91
2019-01-24T23:28:41.752Z,75.33
2019-01-24T23:31:08.487Z,74.55
2019-01-24T23:33:35.249Z,74.50
2019-01-24T23:36:01.991Z,74.99
2019-01-24T23:38:28.760Z,75.38
2019-01-24T23:40:55.500Z,74.92
2019-01-24T23:43:22.282Z,75.84
2019-01-24T23:45:49.044Z,74.95
2019-01-24T23:48:15.804Z,75.21
2019-01-24T23:50:42.564Z,74.82
2019-01-24T23:53:09.316Z,75.00
2019-01-24T23:55:36.072Z,74.47
2019-01-24T23:58:02.844Z,74.31
